Lady Eman — 5IM513 — position and weather

sailwx.info

Track history (hours):
 
Tides and Currents Weather Stations Pressure Air Temp Water Temp Dewpoint Dewpoint Depression Visibility Wind Speed Wind Dir Waves Ship Positions

Lady Eman

Last reported at 2014-Sep-04 19:22 UTC. Time now 2014-Oct-02 10:40 UTC.
Position N 34°33' E 033°56'.
Warning: this ship's position is 27 days out of date.

Length 92 m; draft 7.6 m.

Type: Cargo ship. MMSI: 677041300.

Date/timePositionNaut miles runAvg speedWind from/ knotsBaromVisibWave heightAir tempDewpointWater temp
2014-Sep-04 19:22N 34°33' E 033°56'7 8.2
2014-Sep-04 18:34N 34°32' E 033°48'11 8.9
2014-Sep-04 17:22N 34°31' E 033°35'7 9.0
2014-Sep-04 16:33N 34°30' E 033°27'9 9.1
2014-Sep-04 15:33N 34°29' E 033°16'9 8.9
2014-Sep-04 14:34N 34°28' E 033°05'8 8.5
2014-Sep-04 13:34N 34°27' E 032°55'8 8.4
2014-Sep-04 12:34N 34°30' E 032°45'9 9.4
2014-Sep-04 11:33N 34°33' E 032°34'10 9.1
2014-Sep-04 10:30N 34°37' E 032°23'10 8.8
2014-Sep-04 09:22N 34°41' E 032°12'314 7.7
2014-Sep-02 16:29N 37°06' E 026°28'7 8.1
2014-Sep-02 15:33N 37°11' E 026°22'8 7.8
2014-Sep-02 14:34N 37°17' E 026°15'15 7.5
2014-Sep-02 12:33N 37°27' E 026°01'7 7.1
2014-Sep-02 11:32N 37°33' E 025°56'37 7.4
2014-Sep-02 06:33N 38°10' E 025°50'7 7.5
2014-Sep-02 05:34N 38°17' E 025°49'8 8.2
2014-Sep-02 04:33N 38°25' E 025°48'8 8.1
2014-Sep-02 03:32N 38°34' E 025°47'  
Track history (hours):
 
Tides and Currents Weather Stations Pressure Air Temp Water Temp Dewpoint Dewpoint Depression Visibility Wind Speed Wind Dir Waves Ship Positions

Lady Eman

Last reported at 2014-Sep-04 19:22 UTC. Time now 2014-Oct-02 10:40 UTC.
Position N 34°33' E 033°56'.
Warning: this ship's position is 27 days out of date.

Length 92 m; draft 7.6 m.

Type: Cargo ship. MMSI: 677041300.

Date/timePositionNaut miles runAvg speedWind from/ knotsBaromVisibWave heightAir tempDewpointWater temp
2014-Sep-04 19:22N 34°33' E 033°56'7 8.2
2014-Sep-04 18:34N 34°32' E 033°48'11 8.9
2014-Sep-04 17:22N 34°31' E 033°35'7 9.0
2014-Sep-04 16:33N 34°30' E 033°27'9 9.1
2014-Sep-04 15:33N 34°29' E 033°16'9 8.9
2014-Sep-04 14:34N 34°28' E 033°05'8 8.5
2014-Sep-04 13:34N 34°27' E 032°55'8 8.4
2014-Sep-04 12:34N 34°30' E 032°45'9 9.4
2014-Sep-04 11:33N 34°33' E 032°34'10 9.1
2014-Sep-04 10:30N 34°37' E 032°23'10 8.8
2014-Sep-04 09:22N 34°41' E 032°12'314 7.7
2014-Sep-02 16:29N 37°06' E 026°28'7 8.1
2014-Sep-02 15:33N 37°11' E 026°22'8 7.8
2014-Sep-02 14:34N 37°17' E 026°15'15 7.5
2014-Sep-02 12:33N 37°27' E 026°01'7 7.1
2014-Sep-02 11:32N 37°33' E 025°56'37 7.4
2014-Sep-02 06:33N 38°10' E 025°50'7 7.5
2014-Sep-02 05:34N 38°17' E 025°49'8 8.2
2014-Sep-02 04:33N 38°25' E 025°48'8 8.1
2014-Sep-02 03:32N 38°34' E 025°47'  

Dump ship's entire track history